Time;durP1;ratioP1;P1;durP2;ratioP2;P2;SDS_P1;SDS_P2;PMS_P1;PMS_P2;Temp;Humidity;BMP_temperature;BMP_pressure;BME280_temperature;BME280_humidity;BME280_pressure;Samples;Min_cycle;Max_cycle;Signal;HPM_P1;HPM_P2
2023/12/09 00:02:00;;;;;;;8.60;7.80;;;8.60;99.90;;;;;;5021107;28;20296;-82
2023/12/09 00:04:28;;;;;;;7.60;4.23;;;8.60;99.90;;;;;;5020878;28;20304;-83
2023/12/09 00:06:54;;;;;;;4.47;2.90;;;8.60;99.90;;;;;;5036915;28;20226;-82
2023/12/09 00:09:20;;;;;;;9.03;5.47;;;8.60;99.90;;;;;;5053499;28;20237;-83
2023/12/09 00:11:46;;;;;;;3.33;3.00;;;8.70;99.90;;;;;;5021070;28;20763;-84
2023/12/09 00:14:13;;;;;;;3.80;2.73;;;8.50;99.90;;;;;;5054998;28;20249;-82
2023/12/09 00:16:40;;;;;;;6.00;4.67;;;8.60;99.90;;;;;;5020313;28;20575;-82
2023/12/09 00:19:07;;;;;;;5.63;4.30;;;8.70;99.90;;;;;;5036713;28;20236;-82
2023/12/09 00:21:32;;;;;;;3.13;2.80;;;8.50;99.90;;;;;;5020830;28;20224;-83
2023/12/09 00:23:59;;;;;;;4.67;4.27;;;8.60;99.90;;;;;;5053653;28;20206;-82
2023/12/09 00:26:25;;;;;;;12.80;5.93;;;8.50;99.90;;;;;;5020830;28;20221;-82
2023/12/09 00:28:50;;;;;;;9.03;3.17;;;8.70;99.90;;;;;;5037043;28;20214;-82
2023/12/09 00:31:16;;;;;;;4.30;3.57;;;8.60;99.90;;;;;;5020143;28;20221;-83
2023/12/09 00:33:42;;;;;;;2.53;2.30;;;8.70;99.90;;;;;;5036602;28;20301;-82
2023/12/09 00:36:08;;;;;;;6.93;4.67;;;8.60;99.90;;;;;;5054239;28;20175;-83
2023/12/09 00:38:34;;;;;;;3.47;3.07;;;8.50;99.90;;;;;;5037305;28;20182;-83
2023/12/09 00:40:59;;;;;;;7.50;4.93;;;8.50;99.90;;;;;;5053210;28;20571;-83
2023/12/09 00:43:25;;;;;;;12.53;3.63;;;8.50;99.90;;;;;;5036209;28;20229;-82
2023/12/09 00:45:51;;;;;;;9.03;3.23;;;8.60;99.90;;;;;;5020135;28;20299;-83
2023/12/09 00:48:16;;;;;;;17.87;5.37;;;8.60;99.90;;;;;;5019838;28;20266;-83
2023/12/09 00:50:42;;;;;;;11.33;2.50;;;8.60;99.90;;;;;;5037444;28;20204;-84
2023/12/09 00:53:08;;;;;;;4.33;3.87;;;8.70;99.90;;;;;;5036345;28;20229;-83
2023/12/09 00:55:34;;;;;;;6.87;3.40;;;8.60;99.90;;;;;;5045248;28;20304;-83
2023/12/09 00:57:59;;;;;;;4.57;4.17;;;8.70;99.90;;;;;;5036275;28;20225;-83
2023/12/09 01:00:25;;;;;;;11.33;5.67;;;8.70;99.90;;;;;;5019456;28;20228;-83
2023/12/09 01:02:51;;;;;;;1.63;1.53;;;8.60;99.90;;;;;;5037352;28;20696;-83
2023/12/09 01:05:17;;;;;;;6.33;3.20;;;8.70;99.90;;;;;;5052504;28;20601;-83
2023/12/09 01:07:43;;;;;;;12.40;5.23;;;8.70;99.90;;;;;;5052562;28;20228;-84
2023/12/09 01:10:09;;;;;;;9.00;4.20;;;8.80;99.90;;;;;;5053851;28;20234;-82
2023/12/09 01:12:35;;;;;;;4.40;4.00;;;8.60;99.90;;;;;;5035731;28;20225;-83
2023/12/09 01:15:01;;;;;;;12.60;5.50;;;8.60;99.90;;;;;;5036101;28;20205;-82
2023/12/09 01:17:26;;;;;;;13.60;5.20;;;8.70;99.90;;;;;;5035539;28;20218;-81
2023/12/09 01:19:52;;;;;;;9.13;3.87;;;8.70;99.90;;;;;;5019224;28;20549;-84
2023/12/09 01:22:18;;;;;;;3.37;3.17;;;8.60;99.90;;;;;;5019023;28;20681;-83
2023/12/09 01:24:43;;;;;;;4.53;3.33;;;8.40;99.90;;;;;;5035501;28;20291;-83
2023/12/09 01:27:09;;;;;;;3.27;2.97;;;8.50;99.90;;;;;;5052229;28;20587;-84
2023/12/09 01:29:38;;;;;;;5.03;3.07;;;8.30;99.90;;;;;;5052516;28;20186;-82
2023/12/09 01:32:04;;;;;;;3.63;2.20;;;8.40;99.90;;;;;;5053512;28;20238;-82
2023/12/09 01:34:30;;;;;;;5.47;3.47;;;8.40;99.90;;;;;;5052250;28;20246;-83
2023/12/09 01:36:56;;;;;;;8.70;4.50;;;8.10;99.90;;;;;;5035357;28;20263;-82
2023/12/09 01:39:22;;;;;;;4.43;4.13;;;8.10;99.90;;;;;;5018831;28;21243;-83
2023/12/09 01:41:47;;;;;;;4.50;2.97;;;8.10;99.90;;;;;;5035875;28;20641;-84
2023/12/09 01:44:13;;;;;;;2.20;2.10;;;8.00;99.90;;;;;;5034962;28;20228;-83
2023/12/09 01:46:40;;;;;;;16.07;2.93;;;8.00;99.90;;;;;;5053279;28;20225;-82
2023/12/09 01:49:06;;;;;;;4.00;3.07;;;8.10;99.90;;;;;;5053049;28;20703;-82
2023/12/09 01:51:34;;;;;;;3.47;3.23;;;8.10;99.90;;;;;;5052659;28;20224;-82
2023/12/09 01:54:00;;;;;;;3.70;3.33;;;8.10;99.90;;;;;;5053251;28;20185;-85
2023/12/09 01:56:25;;;;;;;5.47;4.73;;;8.00;99.90;;;;;;5018629;28;20218;-83
2023/12/09 01:58:51;;;;;;;2.47;2.03;;;8.00;99.90;;;;;;5035419;28;20210;-83
2023/12/09 02:01:17;;;;;;;10.57;5.07;;;8.30;99.90;;;;;;5034202;28;20224;-82
2023/12/09 02:03:43;;;;;;;4.63;3.27;;;8.10;99.90;;;;;;5034956;28;20225;-82
2023/12/09 02:06:09;;;;;;;8.20;3.50;;;8.20;99.90;;;;;;5034865;28;20186;-83
2023/12/09 02:08:35;;;;;;;5.40;2.73;;;8.30;99.90;;;;;;5019207;28;20224;-83
2023/12/09 02:11:28;;;;;;;16.90;4.77;;;8.40;99.90;;;;;;5051810;28;20295;-82
2023/12/09 02:14:01;;;;;;;3.07;2.87;;;8.30;99.90;;;;;;5052621;28;20678;-84
2023/12/09 02:16:35;;;;;;;1.93;1.37;;;8.30;99.90;;;;;;5034701;28;20241;-83
2023/12/09 02:19:05;;;;;;;2.43;2.10;;;8.40;99.90;;;;;;5052349;28;20209;-82
2023/12/09 02:21:57;;;;;;;5.83;2.37;;;8.50;99.90;;;;;;5052396;28;20225;-82
2023/12/09 02:24:22;;;;;;;5.97;4.00;;;8.50;99.90;;;;;;5050889;28;20685;-83
2023/12/09 02:26:50;;;;;;;4.53;3.17;;;8.50;99.90;;;;;;5034778;28;20185;-83
2023/12/09 02:29:18;;;;;;;7.40;4.93;;;8.60;99.90;;;;;;5034730;28;20213;-82
2023/12/09 02:31:45;;;;;;;3.30;2.83;;;8.70;99.90;;;;;;5034340;28;20661;-82
2023/12/09 02:34:13;;;;;;;4.43;3.30;;;8.80;99.90;;;;;;5051009;28;20230;-82
2023/12/09 02:36:42;;;;;;;10.97;4.30;;;8.70;99.90;;;;;;5034305;28;20259;-83
2023/12/09 02:39:12;;;;;;;4.27;2.47;;;8.60;99.90;;;;;;5050924;28;20185;-82
2023/12/09 02:41:40;;;;;;;4.33;2.30;;;8.80;99.90;;;;;;5052356;28;20205;-83
2023/12/09 02:44:06;;;;;;;9.33;4.13;;;8.90;99.90;;;;;;5034567;28;20272;-82
2023/12/09 02:46:32;;;;;;;3.03;2.07;;;8.80;99.90;;;;;;5034234;28;20749;-82
2023/12/09 02:49:01;;;;;;;5.20;3.47;;;8.80;99.90;;;;;;5050748;28;20225;-83
2023/12/09 02:51:26;;;;;;;3.40;3.10;;;8.90;99.90;;;;;;5050678;28;20348;-82
2023/12/09 02:53:54;;;;;;;3.90;3.17;;;8.80;99.90;;;;;;5034563;28;20224;-82
2023/12/09 02:56:20;;;;;;;5.80;2.63;;;8.70;99.90;;;;;;5034161;28;20221;-82
2023/12/09 02:58:46;;;;;;;19.43;4.07;;;8.80;99.90;;;;;;5018049;28;20224;-82
2023/12/09 03:01:11;;;;;;;6.43;3.93;;;8.60;99.90;;;;;;5017786;28;20625;-81
2023/12/09 03:03:40;;;;;;;3.00;2.80;;;8.70;99.90;;;;;;5050625;28;20301;-82
2023/12/09 03:06:06;;;;;;;2.97;2.77;;;8.50;99.90;;;;;;5018348;28;20202;-82
2023/12/09 03:08:31;;;;;;;6.60;2.47;;;8.50;99.90;;;;;;5051480;28;20552;-82
2023/12/09 03:10:57;;;;;;;5.90;3.53;;;8.50;99.90;;;;;;5031246;28;20324;-82
2023/12/09 03:13:23;;;;;;;21.03;4.47;;;8.40;99.90;;;;;;5021639;28;20249;-82
2023/12/09 03:15:49;;;;;;;3.27;2.40;;;8.40;99.90;;;;;;5037951;28;20252;-84
2023/12/09 03:18:14;;;;;;;5.53;2.10;;;8.40;99.90;;;;;;5038480;28;20221;-82
2023/12/09 03:20:40;;;;;;;3.97;3.17;;;8.50;99.90;;;;;;5038123;28;20182;-83
2023/12/09 03:23:06;;;;;;;3.97;3.47;;;8.50;99.90;;;;;;5021278;28;20233;-83
2023/12/09 03:25:32;;;;;;;6.97;3.43;;;8.40;99.90;;;;;;5038185;28;20321;-83
2023/12/09 03:27:58;;;;;;;5.10;2.70;;;8.20;99.90;;;;;;5021916;28;20222;-82
2023/12/09 03:30:23;;;;;;;2.77;2.57;;;8.40;99.90;;;;;;5021094;28;20572;-82
2023/12/09 03:32:49;;;;;;;5.03;2.63;;;8.20;99.90;;;;;;5054664;28;20198;-82
2023/12/09 03:35:15;;;;;;;3.07;2.80;;;8.40;99.90;;;;;;5037863;28;20312;-83
2023/12/09 03:37:41;;;;;;;11.87;2.50;;;8.20;99.90;;;;;;5037672;28;20217;-83
2023/12/09 03:40:07;;;;;;;3.03;2.77;;;8.20;99.90;;;;;;5054246;28;20562;-83
2023/12/09 03:42:33;;;;;;;2.93;2.13;;;8.30;99.90;;;;;;5037557;28;20267;-83
2023/12/09 03:44:58;;;;;;;6.03;3.23;;;8.40;99.90;;;;;;5021707;28;20225;-83
2023/12/09 03:47:24;;;;;;;3.97;3.63;;;8.40;99.90;;;;;;5021271;28;20218;-82
2023/12/09 03:49:50;;;;;;;2.53;2.40;;;8.40;99.90;;;;;;5037711;28;20226;-83
2023/12/09 03:52:15;;;;;;;3.50;3.27;;;8.30;99.90;;;;;;5055250;28;20217;-84
2023/12/09 03:54:41;;;;;;;5.87;3.50;;;8.30;99.90;;;;;;5037282;28;20218;-82
2023/12/09 03:57:07;;;;;;;6.27;3.97;;;8.40;99.90;;;;;;5037707;28;20616;-83
2023/12/09 03:59:32;;;;;;;5.10;3.97;;;8.40;99.90;;;;;;5021184;28;20197;-83
2023/12/09 04:01:58;;;;;;;3.13;2.80;;;8.40;99.90;;;;;;5054155;28;20301;-83
2023/12/09 04:04:24;;;;;;;10.83;3.90;;;8.60;99.90;;;;;;5055177;28;20257;-83
2023/12/09 04:06:50;;;;;;;5.17;4.30;;;8.60;99.90;;;;;;5054260;28;20306;-83
2023/12/09 04:09:16;;;;;;;4.10;3.70;;;8.60;99.90;;;;;;5037185;28;20186;-84
2023/12/09 04:11:43;;;;;;;9.10;4.77;;;8.70;99.90;;;;;;5037453;28;20237;-82
2023/12/09 04:14:09;;;;;;;3.77;2.00;;;8.70;99.90;;;;;;5037195;28;20229;-83
2023/12/09 04:16:34;;;;;;;5.63;1.60;;;8.50;99.90;;;;;;5037072;28;20222;-84
2023/12/09 04:19:00;;;;;;;11.23;4.03;;;8.70;99.90;;;;;;5020329;28;20228;-82
2023/12/09 04:21:26;;;;;;;10.83;2.90;;;8.60;99.90;;;;;;5020314;28;20221;-83
2023/12/09 04:23:52;;;;;;;5.27;4.77;;;8.60;99.90;;;;;;5020066;28;20197;-84
2023/12/09 04:26:17;;;;;;;3.23;2.97;;;8.60;99.90;;;;;;5036517;28;20229;-83
2023/12/09 04:28:43;;;;;;;5.53;2.73;;;8.60;99.90;;;;;;5020235;28;20228;-83
2023/12/09 04:31:09;;;;;;;7.00;2.80;;;8.60;99.90;;;;;;5036478;28;20217;-82
2023/12/09 04:33:34;;;;;;;1.90;1.33;;;8.70;99.90;;;;;;5036903;28;20218;-84
2023/12/09 04:36:02;;;;;;;5.60;2.73;;;8.50;99.90;;;;;;5020336;28;20648;-82
2023/12/09 04:38:28;;;;;;;29.00;4.53;;;8.50;99.90;;;;;;5053836;28;20199;-83
2023/12/09 04:40:54;;;;;;;4.47;2.97;;;8.60;99.90;;;;;;5036798;28;20218;-83
2023/12/09 04:43:19;;;;;;;6.80;2.37;;;8.70;99.90;;;;;;5036609;28;20561;-82
2023/12/09 04:45:45;;;;;;;16.97;4.30;;;8.60;99.90;;;;;;5019696;28;20230;-83
2023/12/09 04:48:11;;;;;;;4.20;2.10;;;8.50;99.90;;;;;;5036423;28;20186;-83
2023/12/09 04:50:36;;;;;;;4.03;3.47;;;8.70;99.90;;;;;;5036600;28;20182;-85
2023/12/09 04:53:02;;;;;;;1.10;1.10;;;8.60;99.90;;;;;;5036148;28;20249;-84
2023/12/09 04:55:28;;;;;;;4.83;3.57;;;8.60;99.90;;;;;;5036193;28;20214;-81
2023/12/09 04:57:54;;;;;;;13.30;3.97;;;8.60;99.90;;;;;;5018939;28;20556;-84
2023/12/09 05:00:19;;;;;;;2.77;2.40;;;8.50;99.90;;;;;;5052810;28;20187;-83
2023/12/09 05:02:45;;;;;;;4.60;3.13;;;8.50;99.90;;;;;;5037076;28;20240;-83
2023/12/09 05:05:11;;;;;;;4.90;3.07;;;8.50;99.90;;;;;;5053085;28;20218;-83
2023/12/09 05:07:36;;;;;;;3.13;2.93;;;8.50;99.90;;;;;;5036013;28;20305;-82
2023/12/09 05:10:03;;;;;;;4.30;2.27;;;8.60;99.90;;;;;;5035751;28;20217;-83
2023/12/09 05:12:29;;;;;;;10.13;3.43;;;8.60;99.90;;;;;;5019107;28;20295;-82
2023/12/09 05:14:55;;;;;;;3.80;2.73;;;8.40;99.90;;;;;;5053048;28;20185;-82
2023/12/09 05:17:21;;;;;;;2.77;2.03;;;8.40;99.90;;;;;;5036210;28;20685;-84
2023/12/09 05:19:47;;;;;;;2.87;2.77;;;8.50;99.90;;;;;;5035971;28;20305;-82
2023/12/09 05:22:12;;;;;;;5.00;2.70;;;8.50;99.90;;;;;;5052466;28;20241;-83
2023/12/09 05:24:38;;;;;;;14.33;2.43;;;8.40;99.90;;;;;;5035536;28;20225;-84
2023/12/09 05:27:04;;;;;;;1.50;1.40;;;8.50;99.90;;;;;;5036089;28;20656;-84
2023/12/09 05:29:30;;;;;;;4.97;3.20;;;8.40;99.90;;;;;;5036095;28;20540;-83
2023/12/09 05:31:55;;;;;;;2.33;2.13;;;8.30;99.90;;;;;;5019454;28;20220;-83
2023/12/09 05:34:21;;;;;;;2.17;2.07;;;8.30;99.90;;;;;;5036001;28;20252;-84
2023/12/09 05:36:47;;;;;;;3.17;1.80;;;8.30;99.90;;;;;;5051850;28;20678;-82
2023/12/09 05:39:13;;;;;;;5.70;1.53;;;8.30;99.90;;;;;;5035142;28;20182;-83
2023/12/09 05:41:41;;;;;;;3.83;3.03;;;8.20;99.90;;;;;;5035771;28;20182;-83
2023/12/09 05:44:07;;;;;;;2.00;1.53;;;8.20;99.90;;;;;;5035302;28;20230;-83
2023/12/09 05:46:35;;;;;;;2.53;2.33;;;8.20;99.90;;;;;;5035271;28;20305;-83
2023/12/09 05:49:02;;;;;;;3.30;2.60;;;8.10;99.90;;;;;;5051522;28;20221;-84
2023/12/09 05:51:28;;;;;;;1.70;1.60;;;8.20;99.90;;;;;;5018419;28;20217;-83
2023/12/09 05:53:53;;;;;;;1.53;1.47;;;8.10;99.90;;;;;;5052880;28;20194;-84
2023/12/09 05:56:19;;;;;;;3.00;2.83;;;8.00;99.90;;;;;;5034702;28;20348;-84
2023/12/09 05:58:45;;;;;;;2.70;2.50;;;8.00;99.90;;;;;;5034956;28;20213;-82
2023/12/09 06:01:10;;;;;;;5.33;2.17;;;8.00;99.90;;;;;;5035053;28;20209;-83
2023/12/09 06:03:36;;;;;;;0.97;0.97;;;8.00;99.90;;;;;;5051033;28;20717;-83
2023/12/09 06:06:03;;;;;;;3.60;2.97;;;7.90;99.90;;;;;;5035268;28;20192;-83
2023/12/09 06:08:29;;;;;;;2.33;2.17;;;8.00;99.90;;;;;;5018664;28;20205;-84
2023/12/09 06:10:55;;;;;;;1.43;1.40;;;7.90;99.90;;;;;;5052664;28;20317;-83
2023/12/09 06:13:20;;;;;;;4.20;3.67;;;8.00;99.90;;;;;;5051269;28;20280;-83
2023/12/09 06:15:46;;;;;;;10.23;2.50;;;7.90;99.90;;;;;;5052147;28;20592;-84
2023/12/09 06:18:12;;;;;;;6.80;3.20;;;7.80;99.90;;;;;;5034239;28;20185;-84
2023/12/09 06:20:37;;;;;;;4.53;3.27;;;7.90;99.90;;;;;;5035619;28;20610;-83
2023/12/09 06:23:03;;;;;;;6.13;3.43;;;7.90;99.90;;;;;;5034405;28;20703;-82
2023/12/09 06:25:29;;;;;;;7.10;2.17;;;7.80;99.90;;;;;;5034914;28;20222;-81
2023/12/09 06:27:54;;;;;;;3.53;2.10;;;7.80;99.90;;;;;;5034290;28;20568;-82
2023/12/09 06:30:20;;;;;;;6.63;2.00;;;7.70;99.90;;;;;;5017824;28;20214;-82
2023/12/09 06:32:46;;;;;;;2.77;2.57;;;7.70;99.90;;;;;;5018738;28;20178;-82
2023/12/09 06:35:12;;;;;;;3.17;2.97;;;7.90;99.90;;;;;;5034635;28;20214;-83
2023/12/09 06:37:37;;;;;;;4.93;4.20;;;7.90;99.90;;;;;;5034765;28;20621;-83
2023/12/09 06:40:03;;;;;;;4.47;2.50;;;7.90;99.90;;;;;;5017941;28;20575;-81
2023/12/09 06:42:30;;;;;;;2.57;2.30;;;7.90;99.90;;;;;;5034337;28;20301;-81
2023/12/09 06:44:56;;;;;;;2.27;1.60;;;7.80;99.90;;;;;;5034640;28;20671;-83
2023/12/09 06:47:23;;;;;;;2.83;2.57;;;7.70;99.90;;;;;;5034014;28;20688;-81
2023/12/09 06:49:49;;;;;;;6.37;2.73;;;7.70;99.90;;;;;;5051989;28;20222;-82
2023/12/09 06:52:15;;;;;;;2.70;2.20;;;7.80;99.90;;;;;;5017427;28;20684;-83
2023/12/09 06:54:41;;;;;;;3.87;1.87;;;7.70;99.90;;;;;;5017447;28;20332;-82
2023/12/09 06:57:06;;;;;;;10.40;3.67;;;7.70;99.90;;;;;;5017151;28;20273;-84
2023/12/09 06:59:32;;;;;;;3.83;2.80;;;7.70;99.90;;;;;;5034042;28;20182;-83
2023/12/09 07:01:58;;;;;;;2.47;2.33;;;7.60;99.90;;;;;;5033785;28;20248;-84
2023/12/09 07:04:23;;;;;;;4.90;3.93;;;7.70;99.90;;;;;;5033662;28;20233;-83
2023/12/09 07:06:49;;;;;;;11.83;5.60;;;7.70;99.90;;;;;;5033913;28;20677;-83
2023/12/09 07:09:15;;;;;;;4.67;3.83;;;7.70;99.90;;;;;;5051367;28;20234;-83
2023/12/09 07:11:41;;;;;;;1.97;1.77;;;7.50;99.90;;;;;;5017544;28;20336;-83
2023/12/09 07:14:07;;;;;;;1.57;1.47;;;7.60;99.90;;;;;;5033934;28;20268;-83
2023/12/09 07:16:33;;;;;;;3.83;3.07;;;7.60;99.90;;;;;;5050295;28;20298;-83
2023/12/09 07:18:59;;;;;;;1.80;1.70;;;7.60;99.90;;;;;;5033684;28;20220;-84
2023/12/09 07:21:27;;;;;;;5.00;3.30;;;7.60;99.90;;;;;;5016936;28;20213;-83
2023/12/09 07:23:52;;;;;;;2.83;2.53;;;7.50;99.90;;;;;;5033656;28;20705;-83
2023/12/09 07:26:18;;;;;;;1.57;1.57;;;7.50;99.90;;;;;;5033277;28;20225;-84
2023/12/09 07:28:47;;;;;;;2.97;2.57;;;7.60;99.90;;;;;;5017156;28;20293;-84
2023/12/09 07:31:14;;;;;;;1.77;1.10;;;7.60;99.90;;;;;;5033603;28;20316;-84
2023/12/09 07:33:40;;;;;;;7.37;1.63;;;7.60;99.90;;;;;;5033290;28;20221;-84
2023/12/09 07:36:06;;;;;;;2.87;1.30;;;7.70;99.90;;;;;;5050503;28;20240;-84
2023/12/09 07:38:32;;;;;;;1.73;1.50;;;7.70;99.90;;;;;;5033751;28;20193;-83
2023/12/09 07:40:58;;;;;;;4.77;3.67;;;7.70;99.90;;;;;;5033743;28;20218;-83
2023/12/09 07:43:24;;;;;;;12.40;3.13;;;7.70;99.90;;;;;;5033516;28;20230;-83
2023/12/09 07:45:49;;;;;;;3.50;2.93;;;7.70;99.90;;;;;;5033868;28;20222;-83
2023/12/09 07:48:15;;;;;;;4.37;2.83;;;7.80;99.90;;;;;;5033508;28;20185;-83
2023/12/09 07:50:41;;;;;;;6.77;3.37;;;7.80;99.90;;;;;;5034039;28;20201;-82
2023/12/09 07:53:07;;;;;;;6.53;3.90;;;7.90;99.90;;;;;;5033499;28;20234;-83
2023/12/09 07:55:33;;;;;;;4.13;2.83;;;8.00;99.90;;;;;;5033421;28;20393;-83
2023/12/09 07:57:58;;;;;;;2.23;2.07;;;7.90;99.90;;;;;;5016846;28;20225;-83
2023/12/09 08:00:27;;;;;;;3.53;3.20;;;8.10;99.90;;;;;;5036427;28;20214;-83
2023/12/09 08:02:54;;;;;;;4.20;3.60;;;8.10;99.90;;;;;;5054177;28;20259;-84
2023/12/09 08:05:21;;;;;;;4.33;2.40;;;8.00;99.90;;;;;;5053528;28;20273;-83
2023/12/09 08:07:47;;;;;;;1.77;1.67;;;8.10;99.90;;;;;;5054595;28;20222;-82
2023/12/09 08:10:13;;;;;;;2.87;1.27;;;8.20;99.90;;;;;;5037021;28;20214;-82
2023/12/09 08:12:38;;;;;;;3.97;2.50;;;8.10;99.90;;;;;;5036535;28;20253;-82
2023/12/09 08:15:05;;;;;;;1.67;1.50;;;8.10;99.90;;;;;;5020591;28;20210;-84
2023/12/09 08:17:30;;;;;;;1.63;1.53;;;8.20;99.90;;;;;;5020814;28;20174;-83
2023/12/09 08:19:56;;;;;;;2.23;2.00;;;8.30;99.90;;;;;;5036790;28;20221;-84
2023/12/09 08:22:22;;;;;;;4.43;2.03;;;8.20;99.90;;;;;;5037252;28;20241;-82
2023/12/09 08:24:47;;;;;;;1.27;1.13;;;8.20;99.90;;;;;;5054042;28;20230;-83
2023/12/09 08:27:13;;;;;;;5.30;4.00;;;8.20;99.90;;;;;;5020020;28;20193;-83
2023/12/09 08:29:39;;;;;;;4.07;3.33;;;8.20;99.90;;;;;;5036857;28;20189;-84
2023/12/09 08:32:05;;;;;;;4.80;3.30;;;8.40;99.90;;;;;;5054844;28;20297;-84
2023/12/09 08:34:30;;;;;;;4.33;2.30;;;8.30;99.90;;;;;;5053450;28;20245;-83
2023/12/09 08:36:56;;;;;;;0.73;0.67;;;8.40;99.90;;;;;;5019879;28;20622;-84
2023/12/09 08:39:23;;;;;;;1.50;1.50;;;8.20;99.90;;;;;;5052648;28;20230;-83
2023/12/09 08:41:49;;;;;;;3.23;2.67;;;8.40;99.90;;;;;;5036611;28;20273;-85
2023/12/09 08:44:14;;;;;;;3.50;1.57;;;8.40;99.90;;;;;;5019735;28;20300;-84
2023/12/09 08:46:40;;;;;;;1.87;1.77;;;8.30;99.90;;;;;;5036100;28;20240;-83
2023/12/09 08:49:08;;;;;;;1.77;1.67;;;8.30;99.90;;;;;;5036438;28;20217;-85
2023/12/09 08:51:47;;;;;;;2.03;1.87;;;8.30;99.90;;;;;;5036321;28;20209;-84
2023/12/09 08:54:14;;;;;;;1.67;1.57;;;8.40;99.90;;;;;;5054223;28;20251;-84
2023/12/09 08:56:40;;;;;;;10.03;2.30;;;8.40;99.90;;;;;;5054485;28;20239;-84
2023/12/09 08:59:07;;;;;;;2.40;2.17;;;8.30;99.90;;;;;;5053254;28;20225;-85
2023/12/09 09:01:37;;;;;;;2.87;1.70;;;8.50;99.90;;;;;;5035857;28;20299;-84
2023/12/09 09:04:03;;;;;;;3.87;1.73;;;8.50;99.90;;;;;;5036059;28;20234;-84
2023/12/09 09:06:30;;;;;;;3.43;2.37;;;8.40;99.90;;;;;;5035791;28;20217;-84
2023/12/09 09:08:55;;;;;;;9.03;2.83;;;8.30;99.90;;;;;;5020272;28;20573;-84
2023/12/09 09:11:21;;;;;;;8.50;1.93;;;8.40;99.90;;;;;;5052290;28;20269;-84
2023/12/09 09:13:47;;;;;;;4.43;4.13;;;8.40;99.90;;;;;;5035838;28;20290;-84
2023/12/09 09:16:16;;;;;;;8.13;3.07;;;8.40;99.90;;;;;;5035220;28;20238;-86
2023/12/09 09:18:42;;;;;;;2.03;1.93;;;8.40;99.90;;;;;;5052073;28;20568;-84
2023/12/09 09:21:08;;;;;;;5.47;3.00;;;8.50;99.90;;;;;;5052143;28;20243;-84
2023/12/09 09:23:34;;;;;;;4.80;1.77;;;8.40;99.90;;;;;;5052722;28;20209;-83
2023/12/09 09:26:00;;;;;;;0.87;0.87;;;8.50;99.90;;;;;;5035437;28;20310;-84
2023/12/09 09:28:26;;;;;;;1.43;1.23;;;8.50;99.90;;;;;;5053229;28;20264;-84
2023/12/09 09:30:51;;;;;;;2.27;2.07;;;8.50;99.90;;;;;;5035583;28;20226;-85
2023/12/09 09:33:18;;;;;;;2.53;2.00;;;8.50;99.90;;;;;;5052017;28;20205;-84
2023/12/09 09:35:45;;;;;;;7.43;2.80;;;8.50;99.90;;;;;;5018956;28;20272;-83
2023/12/09 09:38:11;;;;;;;2.53;2.40;;;8.60;99.90;;;;;;5035932;28;20182;-83
2023/12/09 09:40:37;;;;;;;2.10;1.13;;;8.50;99.90;;;;;;5035054;28;20240;-85
2023/12/09 09:43:08;;;;;;;3.93;3.67;;;8.60;99.90;;;;;;5018670;28;20222;-85
2023/12/09 09:45:36;;;;;;;0.67;0.67;;;8.50;99.90;;;;;;5035215;28;20214;-84
2023/12/09 09:48:04;;;;;;;3.40;2.27;;;8.60;99.90;;;;;;5052621;28;20174;-84
2023/12/09 09:50:36;;;;;;;8.40;4.20;;;8.50;99.90;;;;;;5036223;28;20189;-84
2023/12/09 09:53:06;;;;;;;1.23;1.13;;;8.60;99.90;;;;;;5051662;28;20295;-84
2023/12/09 09:55:35;;;;;;;2.97;2.63;;;8.60;99.90;;;;;;5035313;28;20241;-83
2023/12/09 09:58:02;;;;;;;3.67;3.37;;;8.50;99.90;;;;;;5018684;28;20708;-83
2023/12/09 10:00:28;;;;;;;1.90;1.30;;;8.50;99.90;;;;;;5051785;28;20221;-83
2023/12/09 10:02:54;;;;;;;1.37;1.30;;;8.50;99.90;;;;;;5035308;28;20182;-84
2023/12/09 10:05:20;;;;;;;0.80;0.80;;;8.50;99.90;;;;;;5035299;28;20587;-84
2023/12/09 10:07:46;;;;;;;1.03;1.03;;;8.60;99.90;;;;;;5018667;28;20317;-84
2023/12/09 10:10:13;;;;;;;1.37;1.07;;;8.50;99.90;;;;;;5051384;28;20214;-83
2023/12/09 10:12:40;;;;;;;6.67;1.97;;;8.50;99.90;;;;;;5034433;28;20368;-82
2023/12/09 10:15:06;;;;;;;0.60;0.60;;;8.60;99.90;;;;;;5034441;28;20221;-80
2023/12/09 10:17:32;;;;;;;2.10;2.00;;;8.50;99.90;;;;;;5035107;28;20182;-83
2023/12/09 10:19:59;;;;;;;3.57;1.53;;;8.50;99.90;;;;;;5052163;28;20218;-83
2023/12/09 10:22:25;;;;;;;3.27;1.20;;;8.60;99.90;;;;;;5033459;28;20213;-83
2023/12/09 10:24:52;;;;;;;1.77;1.43;;;8.70;99.90;;;;;;5051123;28;20253;-83
2023/12/09 10:27:22;;;;;;;1.43;1.33;;;8.60;99.90;;;;;;5050616;28;20650;-83
2023/12/09 10:29:49;;;;;;;3.40;1.23;;;8.70;99.90;;;;;;5034301;28;20171;-83
2023/12/09 10:32:15;;;;;;;0.93;0.83;;;8.80;99.90;;;;;;5052731;28;20174;-82
2023/12/09 10:34:42;;;;;;;7.30;2.30;;;8.70;99.90;;;;;;5050897;28;20234;-82
2023/12/09 10:37:09;;;;;;;3.70;2.20;;;8.80;99.90;;;;;;5034158;28;20275;-83
2023/12/09 10:39:35;;;;;;;3.00;2.50;;;8.80;99.90;;;;;;5033922;28;20252;-82
2023/12/09 10:42:03;;;;;;;2.00;1.90;;;8.70;99.90;;;;;;5034116;28;20186;-84
2023/12/09 10:44:30;;;;;;;1.53;1.43;;;8.90;99.90;;;;;;5050809;28;20248;-82
2023/12/09 10:46:56;;;;;;;0.83;0.83;;;8.90;99.90;;;;;;5018145;28;20226;-83
2023/12/09 10:49:21;;;;;;;0.83;0.83;;;8.90;99.90;;;;;;5034124;28;20220;-81
2023/12/09 10:51:47;;;;;;;0.43;0.43;;;8.90;99.90;;;;;;5034505;28;20233;-83
2023/12/09 10:54:13;;;;;;;23.30;4.53;;;9.00;99.90;;;;;;5033608;28;20605;-84
2023/12/09 10:56:49;;;;;;;1.80;1.63;;;9.00;99.90;;;;;;5020428;28;20174;-82
2023/12/09 10:59:29;;;;;;;1.90;0.80;;;9.10;99.90;;;;;;5051002;28;20177;-82
2023/12/09 11:02:06;;;;;;;1.37;1.10;;;9.00;99.90;;;;;;5051196;28;20217;-84
2023/12/09 11:04:32;;;;;;;0.70;0.70;;;9.10;99.90;;;;;;5034206;28;20226;-84
2023/12/09 11:07:03;;;;;;;5.00;0.93;;;9.10;99.90;;;;;;5051676;28;20221;-83
2023/12/09 11:09:30;;;;;;;1.73;1.63;;;9.10;99.90;;;;;;5051817;28;20293;-82
2023/12/09 11:11:56;;;;;;;0.87;0.83;;;9.20;99.90;;;;;;5051280;28;20230;-83
2023/12/09 11:14:26;;;;;;;0.63;0.63;;;9.10;99.90;;;;;;5051044;28;20182;-83
2023/12/09 11:16:53;;;;;;;3.50;1.17;;;9.10;99.90;;;;;;5050662;28;20216;-82
2023/12/09 11:19:22;;;;;;;4.70;1.63;;;9.10;99.90;;;;;;5051295;28;20263;-83
2023/12/09 11:21:49;;;;;;;0.40;0.40;;;9.20;99.90;;;;;;5051242;28;20221;-82
2023/12/09 11:24:18;;;;;;;2.27;2.17;;;9.10;99.90;;;;;;5033531;28;20222;-83
2023/12/09 11:26:50;;;;;;;1.23;1.23;;;9.20;99.90;;;;;;5033637;28;20197;-84
2023/12/09 11:29:17;;;;;;;1.17;0.80;;;9.20;99.90;;;;;;5052175;28;20173;-83
2023/12/09 11:31:53;;;;;;;2.87;1.17;;;9.10;99.90;;;;;;5033541;28;20214;-83
2023/12/09 11:34:23;;;;;;;3.10;1.83;;;9.10;99.90;;;;;;5051931;28;20222;-84
2023/12/09 11:36:52;;;;;;;0.70;0.70;;;9.20;99.90;;;;;;5055093;28;20210;-83
2023/12/09 11:39:22;;;;;;;1.00;1.00;;;9.10;99.90;;;;;;5037107;28;20264;-84
2023/12/09 11:41:49;;;;;;;0.73;0.73;;;9.10;99.90;;;;;;5055085;28;20184;-84
2023/12/09 11:44:15;;;;;;;0.40;0.40;;;9.10;99.90;;;;;;5037598;28;20263;-83
2023/12/09 11:46:42;;;;;;;0.30;0.30;;;9.10;99.90;;;;;;5037573;28;20226;-83
2023/12/09 11:49:08;;;;;;;0.73;0.73;;;9.00;99.90;;;;;;5037547;28;20213;-84
2023/12/09 11:51:35;;;;;;;0.47;0.47;;;8.90;99.90;;;;;;5037493;28;20214;-83
2023/12/09 11:54:05;;;;;;;10.43;1.00;;;9.00;99.90;;;;;;5055163;28;20197;-84
2023/12/09 11:56:31;;;;;;;0.73;0.73;;;9.00;99.90;;;;;;5037748;28;20268;-84
2023/12/09 11:58:58;;;;;;;0.90;0.87;;;9.00;99.90;;;;;;5053655;28;20230;-83
2023/12/09 12:01:25;;;;;;;6.40;1.17;;;9.00;99.90;;;;;;5037223;28;20232;-83
2023/12/09 12:03:51;;;;;;;0.40;0.40;;;9.00;99.90;;;;;;5036888;28;20229;-83
2023/12/09 12:06:19;;;;;;;0.67;0.57;;;8.90;99.90;;;;;;5037022;28;20214;-83
2023/12/09 12:08:50;;;;;;;0.97;0.97;;;9.00;99.90;;;;;;5054757;28;20205;-83
2023/12/09 12:11:16;;;;;;;0.63;0.60;;;8.90;99.90;;;;;;5055371;28;20246;-83
2023/12/09 12:13:43;;;;;;;1.23;1.20;;;9.00;99.90;;;;;;5037213;28;20309;-84
2023/12/09 12:16:09;;;;;;;1.50;0.70;;;8.90;99.90;;;;;;5036754;28;20217;-83
2023/12/09 12:18:35;;;;;;;1.23;0.50;;;8.90;99.90;;;;;;5054640;28;20221;-84
2023/12/09 12:21:02;;;;;;;1.47;1.37;;;9.00;99.90;;;;;;5019981;28;20182;-82
2023/12/09 12:23:28;;;;;;;0.83;0.83;;;8.90;99.90;;;;;;5053251;28;20198;-83
2023/12/09 12:25:55;;;;;;;0.67;0.67;;;9.00;99.90;;;;;;5020038;28;20222;-83
2023/12/09 12:28:22;;;;;;;2.73;1.13;;;9.00;99.90;;;;;;5054329;28;20210;-82
2023/12/09 12:31:01;;;;;;;4.00;0.70;;;9.00;99.90;;;;;;5054172;28;20278;-83
2023/12/09 12:33:32;;;;;;;1.57;1.50;;;9.00;99.90;;;;;;5054080;28;20267;-84
2023/12/09 12:36:01;;;;;;;0.60;0.60;;;8.90;99.90;;;;;;5036462;28;20194;-83
2023/12/09 12:38:27;;;;;;;0.97;0.57;;;8.90;99.90;;;;;;5053227;28;20182;-83
2023/12/09 12:40:57;;;;;;;0.97;0.70;;;8.90;99.90;;;;;;5036532;28;20234;-83
2023/12/09 12:43:22;;;;;;;2.17;1.03;;;8.90;99.90;;;;;;5052968;28;20711;-82
2023/12/09 12:45:50;;;;;;;0.63;0.50;;;8.90;99.90;;;;;;5035856;28;20253;-83
2023/12/09 12:48:16;;;;;;;1.63;1.13;;;8.90;99.90;;;;;;5052694;28;20586;-82
2023/12/09 12:50:42;;;;;;;20.10;1.77;;;8.90;99.90;;;;;;5036918;28;20261;-82
2023/12/09 12:53:11;;;;;;;0.20;0.20;;;8.80;99.90;;;;;;5020202;28;20210;-82